sensor_id;sensor_type;location;lat;lon;timestamp;P1;durP1;ratioP1;P2;durP2;ratioP2
40745;SDS011;26454;51.164;4.488;2022-08-19T00:01:30;43.78;;;39.70;;
40745;SDS011;26454;51.164;4.488;2022-08-19T00:03:57;43.17;;;39.03;;
40745;SDS011;26454;51.164;4.488;2022-08-19T00:06:23;44.42;;;39.00;;
40745;SDS011;26454;51.164;4.488;2022-08-19T00:08:49;45.90;;;41.15;;
40745;SDS011;26454;51.164;4.488;2022-08-19T00:11:16;46.17;;;41.63;;
40745;SDS011;26454;51.164;4.488;2022-08-19T00:13:42;46.00;;;41.20;;
40745;SDS011;26454;51.164;4.488;2022-08-19T00:16:09;56.75;;;46.05;;
40745;SDS011;26454;51.164;4.488;2022-08-19T00:18:35;49.83;;;44.50;;
40745;SDS011;26454;51.164;4.488;2022-08-19T00:21:01;50.55;;;45.28;;
40745;SDS011;26454;51.164;4.488;2022-08-19T00:23:28;47.47;;;42.65;;
40745;SDS011;26454;51.164;4.488;2022-08-19T00:25:55;51.95;;;44.28;;
40745;SDS011;26454;51.164;4.488;2022-08-19T00:28:21;48.83;;;44.00;;
40745;SDS011;26454;51.164;4.488;2022-08-19T00:30:47;50.75;;;45.25;;
40745;SDS011;26454;51.164;4.488;2022-08-19T00:33:13;52.38;;;46.92;;
40745;SDS011;26454;51.164;4.488;2022-08-19T00:35:39;49.70;;;44.30;;
40745;SDS011;26454;51.164;4.488;2022-08-19T00:38:05;49.25;;;44.17;;
40745;SDS011;26454;51.164;4.488;2022-08-19T00:40:31;51.10;;;45.83;;
40745;SDS011;26454;51.164;4.488;2022-08-19T00:42:58;54.15;;;48.13;;
40745;SDS011;26454;51.164;4.488;2022-08-19T00:45:25;57.47;;;51.58;;
40745;SDS011;26454;51.164;4.488;2022-08-19T00:47:51;57.30;;;51.28;;
40745;SDS011;26454;51.164;4.488;2022-08-19T00:50:18;59.47;;;53.67;;
40745;SDS011;26454;51.164;4.488;2022-08-19T00:52:46;58.03;;;51.95;;
40745;SDS011;26454;51.164;4.488;2022-08-19T00:55:14;58.40;;;52.53;;
40745;SDS011;26454;51.164;4.488;2022-08-19T00:57:42;62.97;;;56.63;;
40745;SDS011;26454;51.164;4.488;2022-08-19T01:00:11;55.92;;;50.45;;
40745;SDS011;26454;51.164;4.488;2022-08-19T01:02:38;60.38;;;54.53;;
40745;SDS011;26454;51.164;4.488;2022-08-19T01:05:05;56.65;;;50.95;;
40745;SDS011;26454;51.164;4.488;2022-08-19T01:07:32;57.78;;;51.47;;
40745;SDS011;26454;51.164;4.488;2022-08-19T01:09:59;58.20;;;52.55;;
40745;SDS011;26454;51.164;4.488;2022-08-19T01:12:25;59.75;;;53.63;;
40745;SDS011;26454;51.164;4.488;2022-08-19T01:14:51;57.75;;;52.05;;
40745;SDS011;26454;51.164;4.488;2022-08-19T01:17:18;59.25;;;53.33;;
40745;SDS011;26454;51.164;4.488;2022-08-19T01:19:45;57.55;;;51.58;;
40745;SDS011;26454;51.164;4.488;2022-08-19T01:22:12;55.05;;;49.05;;
40745;SDS011;26454;51.164;4.488;2022-08-19T01:24:40;55.15;;;49.17;;
40745;SDS011;26454;51.164;4.488;2022-08-19T01:27:07;50.63;;;45.10;;
40745;SDS011;26454;51.164;4.488;2022-08-19T01:29:34;52.47;;;46.13;;
40745;SDS011;26454;51.164;4.488;2022-08-19T01:32:02;62.70;;;48.42;;
40745;SDS011;26454;51.164;4.488;2022-08-19T01:34:28;53.53;;;47.67;;
40745;SDS011;26454;51.164;4.488;2022-08-19T01:36:54;53.55;;;46.28;;
40745;SDS011;26454;51.164;4.488;2022-08-19T01:39:22;51.58;;;45.97;;
40745;SDS011;26454;51.164;4.488;2022-08-19T01:41:48;54.83;;;47.67;;
40745;SDS011;26454;51.164;4.488;2022-08-19T01:44:17;55.63;;;46.90;;
40745;SDS011;26454;51.164;4.488;2022-08-19T01:46:46;55.30;;;48.33;;
40745;SDS011;26454;51.164;4.488;2022-08-19T01:49:13;55.67;;;49.58;;
40745;SDS011;26454;51.164;4.488;2022-08-19T01:51:39;59.35;;;49.22;;
40745;SDS011;26454;51.164;4.488;2022-08-19T01:54:06;58.38;;;48.88;;
40745;SDS011;26454;51.164;4.488;2022-08-19T01:56:33;59.70;;;49.13;;
40745;SDS011;26454;51.164;4.488;2022-08-19T01:59:00;56.88;;;47.13;;
40745;SDS011;26454;51.164;4.488;2022-08-19T02:01:28;57.25;;;47.70;;
40745;SDS011;26454;51.164;4.488;2022-08-19T02:03:57;56.67;;;47.88;;
40745;SDS011;26454;51.164;4.488;2022-08-19T02:06:23;55.45;;;47.08;;
40745;SDS011;26454;51.164;4.488;2022-08-19T02:08:49;59.53;;;51.63;;
40745;SDS011;26454;51.164;4.488;2022-08-19T02:13:55;60.92;;;52.85;;
40745;SDS011;26454;51.164;4.488;2022-08-19T02:16:21;61.85;;;51.92;;
40745;SDS011;26454;51.164;4.488;2022-08-19T02:18:47;56.72;;;49.55;;
40745;SDS011;26454;51.164;4.488;2022-08-19T02:21:15;60.47;;;51.60;;
40745;SDS011;26454;51.164;4.488;2022-08-19T02:23:42;61.60;;;53.28;;
40745;SDS011;26454;51.164;4.488;2022-08-19T02:26:12;58.03;;;48.65;;
40745;SDS011;26454;51.164;4.488;2022-08-19T02:28:38;59.30;;;51.03;;
40745;SDS011;26454;51.164;4.488;2022-08-19T02:31:08;58.83;;;49.03;;
40745;SDS011;26454;51.164;4.488;2022-08-19T02:33:35;59.38;;;49.50;;
40745;SDS011;26454;51.164;4.488;2022-08-19T02:36:03;61.17;;;53.08;;
40745;SDS011;26454;51.164;4.488;2022-08-19T02:38:29;63.00;;;53.50;;
40745;SDS011;26454;51.164;4.488;2022-08-19T02:40:58;61.65;;;52.90;;
40745;SDS011;26454;51.164;4.488;2022-08-19T02:43:24;62.17;;;53.30;;
40745;SDS011;26454;51.164;4.488;2022-08-19T02:45:51;67.82;;;53.67;;
40745;SDS011;26454;51.164;4.488;2022-08-19T02:48:18;65.40;;;52.67;;
40745;SDS011;26454;51.164;4.488;2022-08-19T02:50:45;66.63;;;51.78;;
40745;SDS011;26454;51.164;4.488;2022-08-19T02:53:11;69.35;;;52.95;;
40745;SDS011;26454;51.164;4.488;2022-08-19T02:55:45;69.18;;;53.38;;
40745;SDS011;26454;51.164;4.488;2022-08-19T02:58:12;61.25;;;51.35;;
40745;SDS011;26454;51.164;4.488;2022-08-19T03:00:47;64.47;;;48.08;;
40745;SDS011;26454;51.164;4.488;2022-08-19T03:03:14;64.82;;;51.00;;
40745;SDS011;26454;51.164;4.488;2022-08-19T03:05:40;67.72;;;52.25;;
40745;SDS011;26454;51.164;4.488;2022-08-19T03:08:06;64.13;;;51.15;;
40745;SDS011;26454;51.164;4.488;2022-08-19T03:10:39;68.85;;;50.95;;
40745;SDS011;26454;51.164;4.488;2022-08-19T03:13:07;64.88;;;48.67;;
40745;SDS011;26454;51.164;4.488;2022-08-19T03:15:33;65.35;;;50.58;;
40745;SDS011;26454;51.164;4.488;2022-08-19T03:17:59;75.40;;;51.92;;
40745;SDS011;26454;51.164;4.488;2022-08-19T03:20:31;62.03;;;48.55;;
40745;SDS011;26454;51.164;4.488;2022-08-19T03:23:03;67.82;;;50.38;;
40745;SDS011;26454;51.164;4.488;2022-08-19T03:25:29;63.83;;;51.47;;
40745;SDS011;26454;51.164;4.488;2022-08-19T03:27:55;65.32;;;51.35;;
40745;SDS011;26454;51.164;4.488;2022-08-19T03:30:22;58.83;;;49.15;;
40745;SDS011;26454;51.164;4.488;2022-08-19T03:32:48;55.45;;;46.30;;
40745;SDS011;26454;51.164;4.488;2022-08-19T03:35:14;68.50;;;50.42;;
40745;SDS011;26454;51.164;4.488;2022-08-19T03:37:41;58.35;;;46.35;;
40745;SDS011;26454;51.164;4.488;2022-08-19T03:40:07;54.08;;;43.88;;
40745;SDS011;26454;51.164;4.488;2022-08-19T03:42:33;57.17;;;43.35;;
40745;SDS011;26454;51.164;4.488;2022-08-19T03:44:59;58.53;;;45.00;;
40745;SDS011;26454;51.164;4.488;2022-08-19T03:47:26;52.95;;;40.72;;
40745;SDS011;26454;51.164;4.488;2022-08-19T03:49:52;57.85;;;42.38;;
40745;SDS011;26454;51.164;4.488;2022-08-19T03:52:21;57.33;;;41.97;;
40745;SDS011;26454;51.164;4.488;2022-08-19T03:54:47;56.63;;;41.83;;
40745;SDS011;26454;51.164;4.488;2022-08-19T03:57:13;57.95;;;44.10;;
40745;SDS011;26454;51.164;4.488;2022-08-19T03:59:42;60.92;;;43.60;;
40745;SDS011;26454;51.164;4.488;2022-08-19T04:02:10;61.75;;;42.85;;
40745;SDS011;26454;51.164;4.488;2022-08-19T04:04:39;57.80;;;41.78;;
40745;SDS011;26454;51.164;4.488;2022-08-19T04:07:05;60.63;;;42.28;;
40745;SDS011;26454;51.164;4.488;2022-08-19T04:09:33;53.85;;;41.63;;
40745;SDS011;26454;51.164;4.488;2022-08-19T04:11:59;55.63;;;42.92;;
40745;SDS011;26454;51.164;4.488;2022-08-19T04:14:26;51.58;;;39.53;;
40745;SDS011;26454;51.164;4.488;2022-08-19T04:16:54;59.38;;;42.92;;
40745;SDS011;26454;51.164;4.488;2022-08-19T04:19:20;57.08;;;42.88;;
40745;SDS011;26454;51.164;4.488;2022-08-19T04:21:47;50.13;;;39.85;;
40745;SDS011;26454;51.164;4.488;2022-08-19T04:24:14;56.05;;;42.53;;
40745;SDS011;26454;51.164;4.488;2022-08-19T04:26:41;52.92;;;38.58;;
40745;SDS011;26454;51.164;4.488;2022-08-19T04:29:09;47.90;;;37.22;;
40745;SDS011;26454;51.164;4.488;2022-08-19T04:31:35;56.17;;;40.53;;
40745;SDS011;26454;51.164;4.488;2022-08-19T04:34:02;43.78;;;37.95;;
40745;SDS011;26454;51.164;4.488;2022-08-19T04:36:30;51.13;;;40.08;;
40745;SDS011;26454;51.164;4.488;2022-08-19T04:38:57;47.72;;;38.70;;
40745;SDS011;26454;51.164;4.488;2022-08-19T04:41:24;51.00;;;38.70;;
40745;SDS011;26454;51.164;4.488;2022-08-19T04:44:01;50.40;;;38.17;;
40745;SDS011;26454;51.164;4.488;2022-08-19T04:46:28;48.88;;;40.90;;
40745;SDS011;26454;51.164;4.488;2022-08-19T04:48:56;43.42;;;38.33;;
40745;SDS011;26454;51.164;4.488;2022-08-19T04:51:22;45.53;;;35.45;;
40745;SDS011;26454;51.164;4.488;2022-08-19T04:53:48;49.35;;;38.75;;
40745;SDS011;26454;51.164;4.488;2022-08-19T04:56:15;47.38;;;37.92;;
40745;SDS011;26454;51.164;4.488;2022-08-19T04:58:42;43.03;;;37.17;;
40745;SDS011;26454;51.164;4.488;2022-08-19T05:01:11;53.88;;;38.20;;
40745;SDS011;26454;51.164;4.488;2022-08-19T05:03:37;44.70;;;37.15;;
40745;SDS011;26454;51.164;4.488;2022-08-19T05:06:06;49.58;;;36.45;;
40745;SDS011;26454;51.164;4.488;2022-08-19T05:08:32;43.65;;;36.58;;
40745;SDS011;26454;51.164;4.488;2022-08-19T05:10:59;46.25;;;37.42;;
40745;SDS011;26454;51.164;4.488;2022-08-19T05:13:25;46.10;;;35.65;;
40745;SDS011;26454;51.164;4.488;2022-08-19T05:15:54;45.53;;;35.60;;
40745;SDS011;26454;51.164;4.488;2022-08-19T05:18:20;43.92;;;35.33;;
40745;SDS011;26454;51.164;4.488;2022-08-19T05:21:08;44.67;;;36.40;;
40745;SDS011;26454;51.164;4.488;2022-08-19T05:23:51;47.10;;;36.58;;
40745;SDS011;26454;51.164;4.488;2022-08-19T05:26:17;44.53;;;37.58;;
40745;SDS011;26454;51.164;4.488;2022-08-19T05:28:43;44.85;;;34.78;;
40745;SDS011;26454;51.164;4.488;2022-08-19T05:31:10;46.92;;;35.70;;
40745;SDS011;26454;51.164;4.488;2022-08-19T05:33:36;45.28;;;35.30;;
40745;SDS011;26454;51.164;4.488;2022-08-19T05:36:02;45.05;;;35.85;;
40745;SDS011;26454;51.164;4.488;2022-08-19T05:38:29;45.80;;;32.83;;
40745;SDS011;26454;51.164;4.488;2022-08-19T05:40:55;49.25;;;32.95;;
40745;SDS011;26454;51.164;4.488;2022-08-19T05:43:21;43.70;;;30.92;;
40745;SDS011;26454;51.164;4.488;2022-08-19T05:45:47;41.17;;;33.40;;
40745;SDS011;26454;51.164;4.488;2022-08-19T05:48:14;38.05;;;29.60;;
40745;SDS011;26454;51.164;4.488;2022-08-19T05:50:45;34.38;;;30.60;;
40745;SDS011;26454;51.164;4.488;2022-08-19T05:53:15;39.70;;;30.17;;
40745;SDS011;26454;51.164;4.488;2022-08-19T05:55:41;34.90;;;30.00;;
40745;SDS011;26454;51.164;4.488;2022-08-19T05:58:07;34.28;;;30.45;;
40745;SDS011;26454;51.164;4.488;2022-08-19T06:00:34;37.60;;;30.55;;
40745;SDS011;26454;51.164;4.488;2022-08-19T06:03:00;36.78;;;29.27;;
40745;SDS011;26454;51.164;4.488;2022-08-19T06:05:29;33.78;;;26.88;;
40745;SDS011;26454;51.164;4.488;2022-08-19T06:07:56;31.35;;;25.92;;
40745;SDS011;26454;51.164;4.488;2022-08-19T06:10:23;40.83;;;25.27;;
40745;SDS011;26454;51.164;4.488;2022-08-19T06:12:49;35.28;;;28.85;;
40745;SDS011;26454;51.164;4.488;2022-08-19T06:15:16;35.40;;;29.13;;
40745;SDS011;26454;51.164;4.488;2022-08-19T06:17:42;37.60;;;30.13;;
40745;SDS011;26454;51.164;4.488;2022-08-19T06:20:10;40.03;;;36.38;;
40745;SDS011;26454;51.164;4.488;2022-08-19T06:22:38;41.72;;;36.20;;
40745;SDS011;26454;51.164;4.488;2022-08-19T06:25:05;40.47;;;36.63;;
40745;SDS011;26454;51.164;4.488;2022-08-19T06:27:32;40.05;;;36.35;;
40745;SDS011;26454;51.164;4.488;2022-08-19T06:29:58;39.92;;;35.97;;
40745;SDS011;26454;51.164;4.488;2022-08-19T06:32:24;39.05;;;35.15;;
40745;SDS011;26454;51.164;4.488;2022-08-19T06:34:50;37.45;;;33.88;;
40745;SDS011;26454;51.164;4.488;2022-08-19T06:37:16;36.03;;;32.72;;
40745;SDS011;26454;51.164;4.488;2022-08-19T06:39:43;34.00;;;30.65;;
40745;SDS011;26454;51.164;4.488;2022-08-19T06:42:10;31.25;;;27.67;;
40745;SDS011;26454;51.164;4.488;2022-08-19T06:44:38;31.90;;;28.58;;
40745;SDS011;26454;51.164;4.488;2022-08-19T06:47:06;35.30;;;31.35;;
40745;SDS011;26454;51.164;4.488;2022-08-19T06:49:33;45.08;;;32.78;;
40745;SDS011;26454;51.164;4.488;2022-08-19T06:51:59;33.55;;;30.05;;
40745;SDS011;26454;51.164;4.488;2022-08-19T06:54:29;33.00;;;29.52;;
40745;SDS011;26454;51.164;4.488;2022-08-19T06:56:56;33.60;;;30.67;;
40745;SDS011;26454;51.164;4.488;2022-08-19T06:59:23;31.50;;;28.50;;
40745;SDS011;26454;51.164;4.488;2022-08-19T07:01:53;34.03;;;30.45;;
40745;SDS011;26454;51.164;4.488;2022-08-19T07:04:21;34.45;;;31.17;;
40745;SDS011;26454;51.164;4.488;2022-08-19T07:06:48;35.15;;;31.52;;
40745;SDS011;26454;51.164;4.488;2022-08-19T07:09:16;35.38;;;31.70;;
40745;SDS011;26454;51.164;4.488;2022-08-19T07:11:45;37.03;;;33.38;;
40745;SDS011;26454;51.164;4.488;2022-08-19T07:14:12;35.45;;;32.25;;
40745;SDS011;26454;51.164;4.488;2022-08-19T07:16:39;34.80;;;31.23;;
40745;SDS011;26454;51.164;4.488;2022-08-19T07:19:08;32.17;;;29.27;;
40745;SDS011;26454;51.164;4.488;2022-08-19T07:21:37;33.55;;;29.13;;
40745;SDS011;26454;51.164;4.488;2022-08-19T07:24:03;33.03;;;29.90;;
40745;SDS011;26454;51.164;4.488;2022-08-19T07:26:31;34.67;;;31.67;;
40745;SDS011;26454;51.164;4.488;2022-08-19T07:28:58;34.63;;;31.25;;
40745;SDS011;26454;51.164;4.488;2022-08-19T07:31:26;33.67;;;30.50;;
40745;SDS011;26454;51.164;4.488;2022-08-19T07:33:53;34.42;;;31.20;;
40745;SDS011;26454;51.164;4.488;2022-08-19T07:36:22;36.88;;;33.25;;
40745;SDS011;26454;51.164;4.488;2022-08-19T07:38:50;37.43;;;33.67;;
40745;SDS011;26454;51.164;4.488;2022-08-19T07:41:18;34.22;;;30.85;;
40745;SDS011;26454;51.164;4.488;2022-08-19T07:43:44;35.47;;;31.95;;
40745;SDS011;26454;51.164;4.488;2022-08-19T07:46:11;36.47;;;31.92;;
40745;SDS011;26454;51.164;4.488;2022-08-19T07:48:39;35.65;;;32.38;;
40745;SDS011;26454;51.164;4.488;2022-08-19T07:51:08;36.15;;;32.70;;
40745;SDS011;26454;51.164;4.488;2022-08-19T07:53:35;35.65;;;32.17;;
40745;SDS011;26454;51.164;4.488;2022-08-19T07:56:03;35.33;;;32.05;;
40745;SDS011;26454;51.164;4.488;2022-08-19T07:58:31;33.45;;;30.02;;
40745;SDS011;26454;51.164;4.488;2022-08-19T08:00:57;33.38;;;30.38;;
40745;SDS011;26454;51.164;4.488;2022-08-19T08:03:23;34.15;;;30.60;;
40745;SDS011;26454;51.164;4.488;2022-08-19T08:06:09;28.83;;;26.08;;
40745;SDS011;26454;51.164;4.488;2022-08-19T08:08:52;31.55;;;28.55;;
40745;SDS011;26454;51.164;4.488;2022-08-19T08:11:32;27.92;;;25.42;;
40745;SDS011;26454;51.164;4.488;2022-08-19T08:13:58;28.02;;;25.58;;
40745;SDS011;26454;51.164;4.488;2022-08-19T08:16:24;24.80;;;22.33;;
40745;SDS011;26454;51.164;4.488;2022-08-19T08:18:55;25.08;;;22.52;;
40745;SDS011;26454;51.164;4.488;2022-08-19T08:21:21;25.98;;;22.63;;
40745;SDS011;26454;51.164;4.488;2022-08-19T08:23:47;23.67;;;21.25;;
40745;SDS011;26454;51.164;4.488;2022-08-19T08:26:13;21.35;;;19.35;;
40745;SDS011;26454;51.164;4.488;2022-08-19T08:28:39;24.80;;;22.27;;
40745;SDS011;26454;51.164;4.488;2022-08-19T08:31:07;25.42;;;23.17;;
40745;SDS011;26454;51.164;4.488;2022-08-19T08:33:34;28.50;;;25.65;;
40745;SDS011;26454;51.164;4.488;2022-08-19T08:36:01;27.70;;;25.08;;
40745;SDS011;26454;51.164;4.488;2022-08-19T08:38:27;26.17;;;23.60;;
40745;SDS011;26454;51.164;4.488;2022-08-19T08:40:57;25.63;;;23.30;;
40745;SDS011;26454;51.164;4.488;2022-08-19T08:43:34;26.70;;;24.15;;
40745;SDS011;26454;51.164;4.488;2022-08-19T08:46:03;26.15;;;23.58;;
40745;SDS011;26454;51.164;4.488;2022-08-19T08:48:32;25.65;;;23.45;;
40745;SDS011;26454;51.164;4.488;2022-08-19T08:51:02;29.20;;;26.38;;
40745;SDS011;26454;51.164;4.488;2022-08-19T08:53:29;30.50;;;27.98;;
40745;SDS011;26454;51.164;4.488;2022-08-19T08:56:00;28.83;;;26.42;;
40745;SDS011;26454;51.164;4.488;2022-08-19T08:58:36;26.63;;;24.50;;
40745;SDS011;26454;51.164;4.488;2022-08-19T09:01:10;26.27;;;24.05;;
40745;SDS011;26454;51.164;4.488;2022-08-19T09:03:36;27.88;;;25.58;;
40745;SDS011;26454;51.164;4.488;2022-08-19T09:06:04;31.17;;;28.88;;
40745;SDS011;26454;51.164;4.488;2022-08-19T09:08:48;23.05;;;21.05;;
40745;SDS011;26454;51.164;4.488;2022-08-19T09:11:24;23.85;;;21.85;;
40745;SDS011;26454;51.164;4.488;2022-08-19T09:16:33;23.67;;;21.73;;
40745;SDS011;26454;51.164;4.488;2022-08-19T09:19:02;25.38;;;23.10;;
40745;SDS011;26454;51.164;4.488;2022-08-19T09:21:30;26.35;;;24.25;;
40745;SDS011;26454;51.164;4.488;2022-08-19T09:23:56;22.52;;;20.23;;
40745;SDS011;26454;51.164;4.488;2022-08-19T09:26:24;22.50;;;19.58;;
40745;SDS011;26454;51.164;4.488;2022-08-19T09:28:51;26.80;;;24.40;;
40745;SDS011;26454;51.164;4.488;2022-08-19T09:31:20;23.65;;;21.92;;
40745;SDS011;26454;51.164;4.488;2022-08-19T09:33:47;35.75;;;33.30;;
40745;SDS011;26454;51.164;4.488;2022-08-19T09:36:15;31.52;;;28.77;;
40745;SDS011;26454;51.164;4.488;2022-08-19T09:38:42;27.90;;;25.88;;
40745;SDS011;26454;51.164;4.488;2022-08-19T09:41:15;30.75;;;28.35;;
40745;SDS011;26454;51.164;4.488;2022-08-19T09:43:41;26.95;;;24.75;;
40745;SDS011;26454;51.164;4.488;2022-08-19T09:46:10;27.00;;;24.97;;
40745;SDS011;26454;51.164;4.488;2022-08-19T09:48:37;29.15;;;26.85;;
40745;SDS011;26454;51.164;4.488;2022-08-19T09:51:04;32.22;;;29.52;;
40745;SDS011;26454;51.164;4.488;2022-08-19T09:53:36;26.80;;;24.83;;
40745;SDS011;26454;51.164;4.488;2022-08-19T09:58:28;25.48;;;23.42;;
40745;SDS011;26454;51.164;4.488;2022-08-19T10:00:55;29.98;;;27.35;;
40745;SDS011;26454;51.164;4.488;2022-08-19T10:03:22;28.95;;;26.25;;
40745;SDS011;26454;51.164;4.488;2022-08-19T10:05:48;26.13;;;23.50;;
40745;SDS011;26454;51.164;4.488;2022-08-19T10:08:16;36.80;;;28.60;;
40745;SDS011;26454;51.164;4.488;2022-08-19T10:10:43;27.80;;;25.48;;
40745;SDS011;26454;51.164;4.488;2022-08-19T10:13:09;27.73;;;25.45;;
40745;SDS011;26454;51.164;4.488;2022-08-19T10:15:38;27.00;;;24.40;;
40745;SDS011;26454;51.164;4.488;2022-08-19T10:18:05;24.90;;;22.80;;
40745;SDS011;26454;51.164;4.488;2022-08-19T10:20:32;29.02;;;26.77;;
40745;SDS011;26454;51.164;4.488;2022-08-19T10:23:00;29.38;;;27.15;;
40745;SDS011;26454;51.164;4.488;2022-08-19T10:25:26;28.67;;;25.80;;
40745;SDS011;26454;51.164;4.488;2022-08-19T10:27:53;28.55;;;26.35;;
40745;SDS011;26454;51.164;4.488;2022-08-19T10:30:19;27.88;;;25.23;;
40745;SDS011;26454;51.164;4.488;2022-08-19T10:32:45;30.27;;;27.77;;
40745;SDS011;26454;51.164;4.488;2022-08-19T10:35:12;27.60;;;25.17;;
40745;SDS011;26454;51.164;4.488;2022-08-19T10:37:38;29.42;;;27.10;;
40745;SDS011;26454;51.164;4.488;2022-08-19T10:40:06;29.10;;;26.67;;
40745;SDS011;26454;51.164;4.488;2022-08-19T10:42:33;28.10;;;25.52;;
40745;SDS011;26454;51.164;4.488;2022-08-19T10:44:59;29.70;;;26.80;;
40745;SDS011;26454;51.164;4.488;2022-08-19T10:47:25;27.55;;;25.25;;
40745;SDS011;26454;51.164;4.488;2022-08-19T10:49:52;24.73;;;22.55;;
40745;SDS011;26454;51.164;4.488;2022-08-19T10:52:34;25.40;;;23.27;;
40745;SDS011;26454;51.164;4.488;2022-08-19T10:55:01;24.77;;;22.42;;
40745;SDS011;26454;51.164;4.488;2022-08-19T10:57:43;24.70;;;22.50;;
40745;SDS011;26454;51.164;4.488;2022-08-19T11:00:10;25.50;;;23.27;;
40745;SDS011;26454;51.164;4.488;2022-08-19T11:02:40;17.35;;;15.60;;
40745;SDS011;26454;51.164;4.488;2022-08-19T11:05:07;19.75;;;15.20;;
40745;SDS011;26454;51.164;4.488;2022-08-19T11:07:36;20.13;;;17.67;;
40745;SDS011;26454;51.164;4.488;2022-08-19T11:10:03;23.33;;;20.95;;
40745;SDS011;26454;51.164;4.488;2022-08-19T11:12:29;22.92;;;20.95;;
40745;SDS011;26454;51.164;4.488;2022-08-19T11:14:55;24.58;;;22.38;;
40745;SDS011;26454;51.164;4.488;2022-08-19T11:17:21;27.42;;;24.85;;
40745;SDS011;26454;51.164;4.488;2022-08-19T11:19:48;20.02;;;18.13;;
40745;SDS011;26454;51.164;4.488;2022-08-19T11:22:15;14.07;;;12.63;;
40745;SDS011;26454;51.164;4.488;2022-08-19T11:24:42;15.23;;;12.02;;
40745;SDS011;26454;51.164;4.488;2022-08-19T11:27:08;12.73;;;11.40;;
40745;SDS011;26454;51.164;4.488;2022-08-19T11:29:37;15.98;;;13.02;;
40745;SDS011;26454;51.164;4.488;2022-08-19T11:32:06;14.77;;;13.10;;
40745;SDS011;26454;51.164;4.488;2022-08-19T11:34:34;17.73;;;15.55;;
40745;SDS011;26454;51.164;4.488;2022-08-19T11:37:00;16.20;;;14.20;;
40745;SDS011;26454;51.164;4.488;2022-08-19T11:39:28;13.52;;;11.80;;
40745;SDS011;26454;51.164;4.488;2022-08-19T11:41:55;13.13;;;9.98;;
40745;SDS011;26454;51.164;4.488;2022-08-19T11:44:21;13.38;;;12.15;;
40745;SDS011;26454;51.164;4.488;2022-08-19T11:46:47;12.25;;;11.10;;
40745;SDS011;26454;51.164;4.488;2022-08-19T11:49:14;13.07;;;10.68;;
40745;SDS011;26454;51.164;4.488;2022-08-19T11:51:41;9.70;;;8.70;;
40745;SDS011;26454;51.164;4.488;2022-08-19T11:54:08;10.95;;;9.77;;
40745;SDS011;26454;51.164;4.488;2022-08-19T11:56:36;13.85;;;11.18;;
40745;SDS011;26454;51.164;4.488;2022-08-19T11:59:02;10.90;;;9.88;;
40745;SDS011;26454;51.164;4.488;2022-08-19T12:01:28;10.98;;;9.82;;
40745;SDS011;26454;51.164;4.488;2022-08-19T12:03:55;10.70;;;9.57;;
40745;SDS011;26454;51.164;4.488;2022-08-19T12:06:22;12.18;;;8.75;;
40745;SDS011;26454;51.164;4.488;2022-08-19T12:08:50;11.20;;;8.40;;
40745;SDS011;26454;51.164;4.488;2022-08-19T12:11:23;9.30;;;8.40;;
40745;SDS011;26454;51.164;4.488;2022-08-19T12:13:49;10.82;;;9.70;;
40745;SDS011;26454;51.164;4.488;2022-08-19T12:16:20;12.38;;;9.88;;
40745;SDS011;26454;51.164;4.488;2022-08-19T12:18:48;10.52;;;9.48;;
40745;SDS011;26454;51.164;4.488;2022-08-19T12:21:18;12.75;;;11.55;;
40745;SDS011;26454;51.164;4.488;2022-08-19T12:23:47;10.52;;;9.65;;
40745;SDS011;26454;51.164;4.488;2022-08-19T12:26:14;21.55;;;20.35;;
40745;SDS011;26454;51.164;4.488;2022-08-19T12:28:40;19.00;;;17.80;;
40745;SDS011;26454;51.164;4.488;2022-08-19T12:31:07;21.08;;;19.92;;
40745;SDS011;26454;51.164;4.488;2022-08-19T12:33:33;17.23;;;16.00;;
40745;SDS011;26454;51.164;4.488;2022-08-19T12:36:03;18.23;;;16.90;;
40745;SDS011;26454;51.164;4.488;2022-08-19T12:38:30;19.08;;;17.95;;
40745;SDS011;26454;51.164;4.488;2022-08-19T12:41:00;15.77;;;14.85;;
40745;SDS011;26454;51.164;4.488;2022-08-19T12:43:30;16.75;;;15.75;;
40745;SDS011;26454;51.164;4.488;2022-08-19T12:45:56;13.18;;;12.40;;
40745;SDS011;26454;51.164;4.488;2022-08-19T12:48:22;18.58;;;17.65;;
40745;SDS011;26454;51.164;4.488;2022-08-19T12:50:49;18.00;;;17.08;;
40745;SDS011;26454;51.164;4.488;2022-08-19T12:53:15;17.13;;;15.85;;
40745;SDS011;26454;51.164;4.488;2022-08-19T12:55:41;20.17;;;18.95;;
40745;SDS011;26454;51.164;4.488;2022-08-19T12:58:08;19.23;;;18.27;;
40745;SDS011;26454;51.164;4.488;2022-08-19T13:00:34;20.73;;;19.52;;
40745;SDS011;26454;51.164;4.488;2022-08-19T13:03:01;20.63;;;19.52;;
40745;SDS011;26454;51.164;4.488;2022-08-19T13:05:28;17.63;;;16.67;;
40745;SDS011;26454;51.164;4.488;2022-08-19T13:07:55;19.10;;;18.00;;
40745;SDS011;26454;51.164;4.488;2022-08-19T13:10:22;17.13;;;15.85;;
40745;SDS011;26454;51.164;4.488;2022-08-19T13:12:50;19.20;;;17.80;;
40745;SDS011;26454;51.164;4.488;2022-08-19T13:15:18;15.02;;;13.82;;
40745;SDS011;26454;51.164;4.488;2022-08-19T13:17:44;15.57;;;14.07;;
40745;SDS011;26454;51.164;4.488;2022-08-19T13:20:13;15.18;;;14.38;;
40745;SDS011;26454;51.164;4.488;2022-08-19T13:22:39;16.40;;;15.48;;
40745;SDS011;26454;51.164;4.488;2022-08-19T13:25:07;14.88;;;14.13;;
40745;SDS011;26454;51.164;4.488;2022-08-19T13:27:34;16.77;;;15.67;;
40745;SDS011;26454;51.164;4.488;2022-08-19T13:30:00;16.13;;;15.13;;
40745;SDS011;26454;51.164;4.488;2022-08-19T13:32:44;18.63;;;17.52;;
40745;SDS011;26454;51.164;4.488;2022-08-19T13:35:24;16.75;;;15.75;;
40745;SDS011;26454;51.164;4.488;2022-08-19T13:37:50;9.40;;;8.50;;
40745;SDS011;26454;51.164;4.488;2022-08-19T13:40:18;8.43;;;6.20;;
40745;SDS011;26454;51.164;4.488;2022-08-19T13:42:47;7.53;;;6.78;;
40745;SDS011;26454;51.164;4.488;2022-08-19T13:45:14;4.13;;;3.42;;
40745;SDS011;26454;51.164;4.488;2022-08-19T13:47:44;5.00;;;3.25;;
40745;SDS011;26454;51.164;4.488;2022-08-19T13:50:11;3.50;;;3.10;;
40745;SDS011;26454;51.164;4.488;2022-08-19T13:52:38;4.15;;;3.83;;
40745;SDS011;26454;51.164;4.488;2022-08-19T13:55:04;4.60;;;4.20;;
40745;SDS011;26454;51.164;4.488;2022-08-19T13:57:31;4.38;;;4.03;;
40745;SDS011;26454;51.164;4.488;2022-08-19T13:59:57;2.67;;;2.47;;
40745;SDS011;26454;51.164;4.488;2022-08-19T14:02:24;6.18;;;3.30;;
40745;SDS011;26454;51.164;4.488;2022-08-19T14:04:50;9.25;;;4.20;;
40745;SDS011;26454;51.164;4.488;2022-08-19T14:07:16;5.28;;;4.72;;
40745;SDS011;26454;51.164;4.488;2022-08-19T14:09:42;3.60;;;3.30;;
40745;SDS011;26454;51.164;4.488;2022-08-19T14:12:08;4.00;;;3.33;;
40745;SDS011;26454;51.164;4.488;2022-08-19T14:14:37;2.90;;;2.70;;
40745;SDS011;26454;51.164;4.488;2022-08-19T14:17:06;4.25;;;3.85;;
40745;SDS011;26454;51.164;4.488;2022-08-19T14:21:59;5.75;;;4.78;;
40745;SDS011;26454;51.164;4.488;2022-08-19T14:24:25;4.68;;;4.38;;
40745;SDS011;26454;51.164;4.488;2022-08-19T14:26:51;7.10;;;6.22;;
40745;SDS011;26454;51.164;4.488;2022-08-19T14:29:17;7.45;;;6.22;;
40745;SDS011;26454;51.164;4.488;2022-08-19T14:31:43;5.88;;;5.40;;
40745;SDS011;26454;51.164;4.488;2022-08-19T14:34:09;5.68;;;5.13;;
40745;SDS011;26454;51.164;4.488;2022-08-19T14:36:37;3.42;;;3.13;;